sensor_id;sensor_type;location;lat;lon;timestamp;P1;durP1;ratioP1;P2;durP2;ratioP2
11839;SDS011;5979;50.800;4.904;2023-07-09T00:00:43;7.10;;;6.55;;
11839;SDS011;5979;50.800;4.904;2023-07-09T00:03:11;7.60;;;6.65;;
11839;SDS011;5979;50.800;4.904;2023-07-09T00:05:37;7.88;;;7.15;;
11839;SDS011;5979;50.800;4.904;2023-07-09T00:08:02;8.18;;;6.88;;
11839;SDS011;5979;50.800;4.904;2023-07-09T00:10:28;6.78;;;6.28;;
11839;SDS011;5979;50.800;4.904;2023-07-09T00:12:54;10.73;;;7.13;;
11839;SDS011;5979;50.800;4.904;2023-07-09T00:15:20;7.15;;;6.45;;
11839;SDS011;5979;50.800;4.904;2023-07-09T00:17:46;7.72;;;6.75;;
11839;SDS011;5979;50.800;4.904;2023-07-09T00:20:18;7.65;;;6.85;;
11839;SDS011;5979;50.800;4.904;2023-07-09T00:22:44;7.03;;;6.32;;
11839;SDS011;5979;50.800;4.904;2023-07-09T00:25:13;6.93;;;6.03;;
11839;SDS011;5979;50.800;4.904;2023-07-09T00:27:41;6.68;;;6.07;;
11839;SDS011;5979;50.800;4.904;2023-07-09T00:30:19;6.80;;;6.25;;
11839;SDS011;5979;50.800;4.904;2023-07-09T00:32:47;8.25;;;5.78;;
11839;SDS011;5979;50.800;4.904;2023-07-09T00:35:17;10.30;;;5.93;;
11839;SDS011;5979;50.800;4.904;2023-07-09T00:37:44;8.93;;;6.03;;
11839;SDS011;5979;50.800;4.904;2023-07-09T00:40:15;6.13;;;5.07;;
11839;SDS011;5979;50.800;4.904;2023-07-09T00:42:44;10.05;;;5.93;;
11839;SDS011;5979;50.800;4.904;2023-07-09T00:45:20;5.97;;;5.40;;
11839;SDS011;5979;50.800;4.904;2023-07-09T00:48:03;7.88;;;6.47;;
11839;SDS011;5979;50.800;4.904;2023-07-09T00:50:41;5.30;;;4.90;;
11839;SDS011;5979;50.800;4.904;2023-07-09T00:53:20;6.05;;;5.45;;
11839;SDS011;5979;50.800;4.904;2023-07-09T00:56:16;6.53;;;5.53;;
11839;SDS011;5979;50.800;4.904;2023-07-09T00:58:45;7.18;;;5.28;;
11839;SDS011;5979;50.800;4.904;2023-07-09T01:01:13;5.68;;;5.18;;
11839;SDS011;5979;50.800;4.904;2023-07-09T01:03:50;5.70;;;5.20;;
11839;SDS011;5979;50.800;4.904;2023-07-09T01:06:19;7.13;;;5.65;;
11839;SDS011;5979;50.800;4.904;2023-07-09T01:08:51;9.43;;;6.55;;
11839;SDS011;5979;50.800;4.904;2023-07-09T01:11:19;6.75;;;6.10;;
11839;SDS011;5979;50.800;4.904;2023-07-09T01:13:47;7.55;;;5.82;;
11839;SDS011;5979;50.800;4.904;2023-07-09T01:16:16;6.55;;;5.75;;
11839;SDS011;5979;50.800;4.904;2023-07-09T01:18:42;6.50;;;5.85;;
11839;SDS011;5979;50.800;4.904;2023-07-09T01:21:09;8.80;;;6.35;;
11839;SDS011;5979;50.800;4.904;2023-07-09T01:23:44;6.72;;;6.03;;
11839;SDS011;5979;50.800;4.904;2023-07-09T01:26:11;6.15;;;5.57;;
11839;SDS011;5979;50.800;4.904;2023-07-09T01:28:45;6.05;;;5.53;;
11839;SDS011;5979;50.800;4.904;2023-07-09T01:31:12;7.93;;;6.38;;
11839;SDS011;5979;50.800;4.904;2023-07-09T01:33:40;6.50;;;5.90;;
11839;SDS011;5979;50.800;4.904;2023-07-09T01:36:11;10.07;;;6.43;;
11839;SDS011;5979;50.800;4.904;2023-07-09T01:38:42;7.13;;;6.53;;
11839;SDS011;5979;50.800;4.904;2023-07-09T01:41:08;7.22;;;6.30;;
11839;SDS011;5979;50.800;4.904;2023-07-09T01:43:38;7.07;;;6.35;;
11839;SDS011;5979;50.800;4.904;2023-07-09T01:46:06;7.47;;;6.65;;
11839;SDS011;5979;50.800;4.904;2023-07-09T01:48:33;6.80;;;6.20;;
11839;SDS011;5979;50.800;4.904;2023-07-09T01:51:06;7.85;;;6.50;;
11839;SDS011;5979;50.800;4.904;2023-07-09T01:53:33;8.85;;;6.97;;
11839;SDS011;5979;50.800;4.904;2023-07-09T01:56:01;8.57;;;6.68;;
11839;SDS011;5979;50.800;4.904;2023-07-09T01:58:27;7.18;;;6.47;;
11839;SDS011;5979;50.800;4.904;2023-07-09T02:00:57;6.97;;;5.80;;
11839;SDS011;5979;50.800;4.904;2023-07-09T02:03:23;9.52;;;7.15;;
11839;SDS011;5979;50.800;4.904;2023-07-09T02:05:51;10.38;;;6.72;;
11839;SDS011;5979;50.800;4.904;2023-07-09T02:08:20;11.35;;;6.30;;
11839;SDS011;5979;50.800;4.904;2023-07-09T02:10:49;7.45;;;6.63;;
11839;SDS011;5979;50.800;4.904;2023-07-09T02:13:15;12.05;;;6.65;;
11839;SDS011;5979;50.800;4.904;2023-07-09T02:15:44;15.02;;;6.53;;
11839;SDS011;5979;50.800;4.904;2023-07-09T02:18:11;16.90;;;7.00;;
11839;SDS011;5979;50.800;4.904;2023-07-09T02:20:37;17.77;;;6.63;;
11839;SDS011;5979;50.800;4.904;2023-07-09T02:23:03;13.63;;;5.50;;
11839;SDS011;5979;50.800;4.904;2023-07-09T02:25:30;17.88;;;7.03;;
11839;SDS011;5979;50.800;4.904;2023-07-09T02:27:56;13.65;;;6.65;;
11839;SDS011;5979;50.800;4.904;2023-07-09T02:30:22;14.95;;;6.07;;
11839;SDS011;5979;50.800;4.904;2023-07-09T02:32:47;14.02;;;6.68;;
11839;SDS011;5979;50.800;4.904;2023-07-09T02:35:13;12.60;;;6.50;;
11839;SDS011;5979;50.800;4.904;2023-07-09T02:37:39;19.13;;;6.10;;
11839;SDS011;5979;50.800;4.904;2023-07-09T02:40:11;15.35;;;6.47;;
11839;SDS011;5979;50.800;4.904;2023-07-09T02:42:37;9.10;;;6.15;;
11839;SDS011;5979;50.800;4.904;2023-07-09T02:45:03;10.80;;;5.88;;
11839;SDS011;5979;50.800;4.904;2023-07-09T02:47:29;11.15;;;6.88;;
11839;SDS011;5979;50.800;4.904;2023-07-09T02:49:55;9.80;;;6.47;;
11839;SDS011;5979;50.800;4.904;2023-07-09T02:52:20;9.20;;;6.10;;
11839;SDS011;5979;50.800;4.904;2023-07-09T02:54:46;10.88;;;6.40;;
11839;SDS011;5979;50.800;4.904;2023-07-09T02:57:12;7.35;;;6.60;;
11839;SDS011;5979;50.800;4.904;2023-07-09T02:59:37;9.85;;;6.35;;
11839;SDS011;5979;50.800;4.904;2023-07-09T03:02:03;9.82;;;5.80;;
11839;SDS011;5979;50.800;4.904;2023-07-09T03:04:29;8.90;;;6.35;;
11839;SDS011;5979;50.800;4.904;2023-07-09T03:06:56;10.52;;;5.90;;
11839;SDS011;5979;50.800;4.904;2023-07-09T03:09:22;16.27;;;6.15;;
11839;SDS011;5979;50.800;4.904;2023-07-09T03:11:48;13.80;;;6.47;;
11839;SDS011;5979;50.800;4.904;2023-07-09T03:14:14;11.48;;;6.60;;
11839;SDS011;5979;50.800;4.904;2023-07-09T03:16:41;12.82;;;5.80;;
11839;SDS011;5979;50.800;4.904;2023-07-09T03:19:07;13.57;;;6.32;;
11839;SDS011;5979;50.800;4.904;2023-07-09T03:21:32;15.40;;;7.50;;
11839;SDS011;5979;50.800;4.904;2023-07-09T03:23:58;13.60;;;6.13;;
11839;SDS011;5979;50.800;4.904;2023-07-09T03:26:24;12.13;;;7.00;;
11839;SDS011;5979;50.800;4.904;2023-07-09T03:28:51;11.77;;;6.82;;
11839;SDS011;5979;50.800;4.904;2023-07-09T03:31:17;11.98;;;6.57;;
11839;SDS011;5979;50.800;4.904;2023-07-09T03:33:45;12.77;;;6.90;;
11839;SDS011;5979;50.800;4.904;2023-07-09T03:36:12;13.90;;;6.72;;
11839;SDS011;5979;50.800;4.904;2023-07-09T03:38:38;11.88;;;6.72;;
11839;SDS011;5979;50.800;4.904;2023-07-09T03:41:03;11.90;;;6.50;;
11839;SDS011;5979;50.800;4.904;2023-07-09T03:43:29;17.13;;;6.53;;
11839;SDS011;5979;50.800;4.904;2023-07-09T03:45:55;12.23;;;6.70;;
11839;SDS011;5979;50.800;4.904;2023-07-09T03:48:21;9.20;;;6.53;;
11839;SDS011;5979;50.800;4.904;2023-07-09T03:50:47;14.00;;;6.40;;
11839;SDS011;5979;50.800;4.904;2023-07-09T03:53:14;15.32;;;6.57;;
11839;SDS011;5979;50.800;4.904;2023-07-09T03:55:40;15.10;;;6.38;;
11839;SDS011;5979;50.800;4.904;2023-07-09T03:58:06;14.60;;;5.88;;
11839;SDS011;5979;50.800;4.904;2023-07-09T04:00:32;18.67;;;6.63;;
11839;SDS011;5979;50.800;4.904;2023-07-09T04:02:58;16.17;;;6.78;;
11839;SDS011;5979;50.800;4.904;2023-07-09T04:05:24;20.25;;;6.45;;
11839;SDS011;5979;50.800;4.904;2023-07-09T04:07:51;12.77;;;6.28;;
11839;SDS011;5979;50.800;4.904;2023-07-09T04:10:17;14.10;;;6.20;;
11839;SDS011;5979;50.800;4.904;2023-07-09T04:12:43;17.98;;;6.22;;
11839;SDS011;5979;50.800;4.904;2023-07-09T04:15:12;15.88;;;6.32;;
11839;SDS011;5979;50.800;4.904;2023-07-09T04:17:38;13.02;;;5.68;;
11839;SDS011;5979;50.800;4.904;2023-07-09T04:20:05;14.93;;;5.97;;
11839;SDS011;5979;50.800;4.904;2023-07-09T04:22:32;14.05;;;6.10;;
11839;SDS011;5979;50.800;4.904;2023-07-09T04:25:00;11.07;;;6.03;;
11839;SDS011;5979;50.800;4.904;2023-07-09T04:27:27;11.55;;;5.70;;
11839;SDS011;5979;50.800;4.904;2023-07-09T04:29:53;11.52;;;5.75;;
11839;SDS011;5979;50.800;4.904;2023-07-09T04:32:20;9.63;;;5.55;;
11839;SDS011;5979;50.800;4.904;2023-07-09T04:34:46;10.07;;;5.95;;
11839;SDS011;5979;50.800;4.904;2023-07-09T04:37:12;6.35;;;4.72;;
11839;SDS011;5979;50.800;4.904;2023-07-09T04:39:39;9.75;;;5.28;;
11839;SDS011;5979;50.800;4.904;2023-07-09T04:42:06;8.38;;;5.10;;
11839;SDS011;5979;50.800;4.904;2023-07-09T04:44:35;8.90;;;4.75;;
11839;SDS011;5979;50.800;4.904;2023-07-09T04:47:01;8.10;;;5.03;;
11839;SDS011;5979;50.800;4.904;2023-07-09T04:49:27;9.10;;;5.38;;
11839;SDS011;5979;50.800;4.904;2023-07-09T04:51:52;9.77;;;5.25;;
11839;SDS011;5979;50.800;4.904;2023-07-09T04:54:19;6.75;;;5.30;;
11839;SDS011;5979;50.800;4.904;2023-07-09T04:56:47;7.88;;;5.25;;
11839;SDS011;5979;50.800;4.904;2023-07-09T04:59:13;11.02;;;5.40;;
11839;SDS011;5979;50.800;4.904;2023-07-09T05:01:39;8.75;;;5.28;;
11839;SDS011;5979;50.800;4.904;2023-07-09T05:04:05;7.15;;;5.25;;
11839;SDS011;5979;50.800;4.904;2023-07-09T05:06:31;7.90;;;5.43;;
11839;SDS011;5979;50.800;4.904;2023-07-09T05:09:01;5.28;;;4.65;;
11839;SDS011;5979;50.800;4.904;2023-07-09T05:11:26;8.82;;;5.40;;
11839;SDS011;5979;50.800;4.904;2023-07-09T05:13:52;6.22;;;4.80;;
11839;SDS011;5979;50.800;4.904;2023-07-09T05:16:18;5.95;;;4.97;;
11839;SDS011;5979;50.800;4.904;2023-07-09T05:18:44;6.57;;;4.72;;
11839;SDS011;5979;50.800;4.904;2023-07-09T05:21:10;10.88;;;5.00;;
11839;SDS011;5979;50.800;4.904;2023-07-09T05:23:36;7.90;;;5.18;;
11839;SDS011;5979;50.800;4.904;2023-07-09T05:26:02;6.30;;;4.85;;
11839;SDS011;5979;50.800;4.904;2023-07-09T05:28:29;6.95;;;4.97;;
11839;SDS011;5979;50.800;4.904;2023-07-09T05:30:57;4.55;;;4.22;;
11839;SDS011;5979;50.800;4.904;2023-07-09T05:33:23;6.13;;;4.63;;
11839;SDS011;5979;50.800;4.904;2023-07-09T05:35:49;5.20;;;4.80;;
11839;SDS011;5979;50.800;4.904;2023-07-09T05:38:15;4.38;;;3.90;;
11839;SDS011;5979;50.800;4.904;2023-07-09T05:40:41;6.25;;;4.00;;
11839;SDS011;5979;50.800;4.904;2023-07-09T05:43:08;6.20;;;5.32;;
11839;SDS011;5979;50.800;4.904;2023-07-09T05:45:35;8.07;;;5.45;;
11839;SDS011;5979;50.800;4.904;2023-07-09T05:48:00;6.10;;;4.63;;
11839;SDS011;5979;50.800;4.904;2023-07-09T05:50:27;6.50;;;4.53;;
11839;SDS011;5979;50.800;4.904;2023-07-09T05:52:53;4.90;;;4.47;;
11839;SDS011;5979;50.800;4.904;2023-07-09T05:55:19;5.90;;;4.82;;
11839;SDS011;5979;50.800;4.904;2023-07-09T05:57:45;5.20;;;4.40;;
11839;SDS011;5979;50.800;4.904;2023-07-09T06:00:11;7.60;;;4.38;;
11839;SDS011;5979;50.800;4.904;2023-07-09T06:02:37;8.82;;;4.90;;
11839;SDS011;5979;50.800;4.904;2023-07-09T06:05:03;4.20;;;3.83;;
11839;SDS011;5979;50.800;4.904;2023-07-09T06:07:30;5.80;;;4.28;;
11839;SDS011;5979;50.800;4.904;2023-07-09T06:09:56;4.63;;;4.22;;
11839;SDS011;5979;50.800;4.904;2023-07-09T06:12:22;4.45;;;4.05;;
11839;SDS011;5979;50.800;4.904;2023-07-09T06:14:48;4.47;;;4.13;;
11839;SDS011;5979;50.800;4.904;2023-07-09T06:17:14;5.15;;;4.63;;
11839;SDS011;5979;50.800;4.904;2023-07-09T06:19:40;8.13;;;4.53;;
11839;SDS011;5979;50.800;4.904;2023-07-09T06:22:06;6.18;;;4.03;;
11839;SDS011;5979;50.800;4.904;2023-07-09T06:24:31;5.38;;;4.28;;
11839;SDS011;5979;50.800;4.904;2023-07-09T06:26:57;5.32;;;4.47;;
11839;SDS011;5979;50.800;4.904;2023-07-09T06:29:24;4.40;;;4.00;;
11839;SDS011;5979;50.800;4.904;2023-07-09T06:31:50;4.95;;;4.20;;
11839;SDS011;5979;50.800;4.904;2023-07-09T06:34:16;5.68;;;4.60;;
11839;SDS011;5979;50.800;4.904;2023-07-09T06:36:42;4.47;;;3.97;;
11839;SDS011;5979;50.800;4.904;2023-07-09T06:39:08;4.80;;;4.10;;
11839;SDS011;5979;50.800;4.904;2023-07-09T06:41:33;7.20;;;4.20;;
11839;SDS011;5979;50.800;4.904;2023-07-09T06:44:06;4.78;;;4.38;;
11839;SDS011;5979;50.800;4.904;2023-07-09T06:46:33;5.22;;;4.75;;
11839;SDS011;5979;50.800;4.904;2023-07-09T06:49:00;4.25;;;3.95;;
11839;SDS011;5979;50.800;4.904;2023-07-09T06:51:26;6.53;;;4.45;;
11839;SDS011;5979;50.800;4.904;2023-07-09T06:53:51;6.82;;;4.50;;
11839;SDS011;5979;50.800;4.904;2023-07-09T06:56:17;5.38;;;4.85;;
11839;SDS011;5979;50.800;4.904;2023-07-09T06:58:43;4.80;;;4.40;;
11839;SDS011;5979;50.800;4.904;2023-07-09T07:01:11;4.70;;;4.20;;
11839;SDS011;5979;50.800;4.904;2023-07-09T07:03:37;5.22;;;4.50;;
11839;SDS011;5979;50.800;4.904;2023-07-09T07:06:03;3.75;;;3.50;;
11839;SDS011;5979;50.800;4.904;2023-07-09T07:08:31;4.20;;;3.80;;
11839;SDS011;5979;50.800;4.904;2023-07-09T07:10:58;7.05;;;4.00;;
11839;SDS011;5979;50.800;4.904;2023-07-09T07:13:29;4.65;;;4.25;;
11839;SDS011;5979;50.800;4.904;2023-07-09T07:16:06;5.25;;;4.38;;
11839;SDS011;5979;50.800;4.904;2023-07-09T07:18:34;4.63;;;4.18;;
11839;SDS011;5979;50.800;4.904;2023-07-09T07:21:00;5.18;;;4.47;;
11839;SDS011;5979;50.800;4.904;2023-07-09T07:23:26;4.93;;;4.25;;
11839;SDS011;5979;50.800;4.904;2023-07-09T07:25:52;6.93;;;4.55;;
11839;SDS011;5979;50.800;4.904;2023-07-09T07:28:18;4.93;;;4.40;;
11839;SDS011;5979;50.800;4.904;2023-07-09T07:30:44;6.05;;;4.40;;
11839;SDS011;5979;50.800;4.904;2023-07-09T07:33:10;4.40;;;4.00;;
11839;SDS011;5979;50.800;4.904;2023-07-09T07:35:41;5.53;;;4.72;;
11839;SDS011;5979;50.800;4.904;2023-07-09T07:38:06;4.50;;;4.10;;
11839;SDS011;5979;50.800;4.904;2023-07-09T07:40:32;4.80;;;4.22;;
11839;SDS011;5979;50.800;4.904;2023-07-09T07:42:58;4.90;;;4.47;;
11839;SDS011;5979;50.800;4.904;2023-07-09T07:45:24;5.00;;;4.60;;
11839;SDS011;5979;50.800;4.904;2023-07-09T07:47:49;4.60;;;4.30;;
11839;SDS011;5979;50.800;4.904;2023-07-09T07:50:17;6.18;;;4.53;;
11839;SDS011;5979;50.800;4.904;2023-07-09T07:52:43;6.18;;;4.22;;
11839;SDS011;5979;50.800;4.904;2023-07-09T07:55:09;6.35;;;4.28;;
11839;SDS011;5979;50.800;4.904;2023-07-09T07:57:35;5.10;;;4.60;;
11839;SDS011;5979;50.800;4.904;2023-07-09T08:00:01;5.53;;;4.78;;
11839;SDS011;5979;50.800;4.904;2023-07-09T08:02:28;3.88;;;3.67;;
11839;SDS011;5979;50.800;4.904;2023-07-09T08:04:54;5.07;;;4.68;;
11839;SDS011;5979;50.800;4.904;2023-07-09T08:07:19;4.63;;;4.22;;
11839;SDS011;5979;50.800;4.904;2023-07-09T08:12:38;4.40;;;4.00;;
11839;SDS011;5979;50.800;4.904;2023-07-09T08:15:04;4.45;;;4.07;;
11839;SDS011;5979;50.800;4.904;2023-07-09T08:17:31;5.13;;;4.32;;
11839;SDS011;5979;50.800;4.904;2023-07-09T08:19:56;5.55;;;4.25;;
11839;SDS011;5979;50.800;4.904;2023-07-09T08:22:22;6.47;;;3.88;;
11839;SDS011;5979;50.800;4.904;2023-07-09T08:24:48;4.97;;;3.85;;
11839;SDS011;5979;50.800;4.904;2023-07-09T08:27:15;4.20;;;3.88;;
11839;SDS011;5979;50.800;4.904;2023-07-09T08:29:41;5.13;;;4.18;;
11839;SDS011;5979;50.800;4.904;2023-07-09T08:32:07;4.95;;;4.43;;
11839;SDS011;5979;50.800;4.904;2023-07-09T08:34:34;5.40;;;4.22;;
11839;SDS011;5979;50.800;4.904;2023-07-09T08:37:00;6.18;;;4.05;;
11839;SDS011;5979;50.800;4.904;2023-07-09T08:39:26;4.75;;;4.35;;
11839;SDS011;5979;50.800;4.904;2023-07-09T08:41:54;3.95;;;3.65;;
11839;SDS011;5979;50.800;4.904;2023-07-09T08:47:45;4.63;;;4.20;;
11839;SDS011;5979;50.800;4.904;2023-07-09T08:50:45;4.55;;;3.85;;
11839;SDS011;5979;50.800;4.904;2023-07-09T08:53:21;4.57;;;4.10;;
11839;SDS011;5979;50.800;4.904;2023-07-09T08:55:53;4.50;;;4.15;;
11839;SDS011;5979;50.800;4.904;2023-07-09T08:58:27;5.70;;;4.07;;
11839;SDS011;5979;50.800;4.904;2023-07-09T09:00:59;5.25;;;3.97;;
11839;SDS011;5979;50.800;4.904;2023-07-09T09:03:34;6.47;;;4.32;;
11839;SDS011;5979;50.800;4.904;2023-07-09T09:06:11;7.53;;;4.50;;
11839;SDS011;5979;50.800;4.904;2023-07-09T09:11:37;5.05;;;3.97;;
11839;SDS011;5979;50.800;4.904;2023-07-09T09:16:55;5.05;;;4.43;;
11839;SDS011;5979;50.800;4.904;2023-07-09T09:19:31;4.38;;;3.95;;
11839;SDS011;5979;50.800;4.904;2023-07-09T09:22:04;7.95;;;4.38;;
11839;SDS011;5979;50.800;4.904;2023-07-09T09:24:43;5.20;;;4.70;;
11839;SDS011;5979;50.800;4.904;2023-07-09T09:27:21;4.30;;;3.90;;
11839;SDS011;5979;50.800;4.904;2023-07-09T09:29:47;5.18;;;4.35;;
11839;SDS011;5979;50.800;4.904;2023-07-09T09:32:23;4.10;;;3.80;;
11839;SDS011;5979;50.800;4.904;2023-07-09T09:34:52;4.22;;;3.83;;
11839;SDS011;5979;50.800;4.904;2023-07-09T09:37:28;4.20;;;3.90;;
11839;SDS011;5979;50.800;4.904;2023-07-09T09:39:56;4.40;;;4.10;;
11839;SDS011;5979;50.800;4.904;2023-07-09T09:42:23;4.03;;;3.83;;
11839;SDS011;5979;50.800;4.904;2023-07-09T09:44:50;4.35;;;3.88;;
11839;SDS011;5979;50.800;4.904;2023-07-09T09:47:19;4.38;;;4.03;;
11839;SDS011;5979;50.800;4.904;2023-07-09T09:49:45;5.97;;;4.03;;
11839;SDS011;5979;50.800;4.904;2023-07-09T09:52:15;4.40;;;4.00;;
11839;SDS011;5979;50.800;4.904;2023-07-09T09:54:51;4.35;;;3.95;;
11839;SDS011;5979;50.800;4.904;2023-07-09T09:57:20;4.28;;;3.97;;
11839;SDS011;5979;50.800;4.904;2023-07-09T09:59:47;5.35;;;3.58;;
11839;SDS011;5979;50.800;4.904;2023-07-09T10:02:17;6.03;;;4.68;;
11839;SDS011;5979;50.800;4.904;2023-07-09T10:04:45;4.65;;;3.83;;
11839;SDS011;5979;50.800;4.904;2023-07-09T10:07:15;4.78;;;4.03;;
11839;SDS011;5979;50.800;4.904;2023-07-09T10:09:52;5.68;;;4.28;;
11839;SDS011;5979;50.800;4.904;2023-07-09T10:23:13;4.88;;;4.47;;
11839;SDS011;5979;50.800;4.904;2023-07-09T10:26:10;7.82;;;4.72;;
11839;SDS011;5979;50.800;4.904;2023-07-09T10:31:53;4.68;;;3.85;;
11839;SDS011;5979;50.800;4.904;2023-07-09T10:40:36;5.80;;;4.57;;
11839;SDS011;5979;50.800;4.904;2023-07-09T10:43:06;6.25;;;4.32;;
11839;SDS011;5979;50.800;4.904;2023-07-09T10:45:48;5.97;;;4.60;;
11839;SDS011;5979;50.800;4.904;2023-07-09T10:48:26;4.60;;;4.20;;
11839;SDS011;5979;50.800;4.904;2023-07-09T10:51:04;4.90;;;4.35;;
11839;SDS011;5979;50.800;4.904;2023-07-09T10:53:48;5.25;;;4.45;;
11839;SDS011;5979;50.800;4.904;2023-07-09T10:56:22;5.85;;;4.00;;
11839;SDS011;5979;50.800;4.904;2023-07-09T11:01:45;5.43;;;4.30;;
11839;SDS011;5979;50.800;4.904;2023-07-09T11:04:27;9.77;;;4.72;;
11839;SDS011;5979;50.800;4.904;2023-07-09T11:06:59;4.85;;;4.25;;
11839;SDS011;5979;50.800;4.904;2023-07-09T11:09:33;5.93;;;4.10;;
11839;SDS011;5979;50.800;4.904;2023-07-09T11:12:10;5.88;;;4.97;;
11839;SDS011;5979;50.800;4.904;2023-07-09T11:14:53;4.90;;;4.50;;
11839;SDS011;5979;50.800;4.904;2023-07-09T11:17:28;6.38;;;4.80;;
11839;SDS011;5979;50.800;4.904;2023-07-09T11:19:55;4.97;;;4.55;;
11839;SDS011;5979;50.800;4.904;2023-07-09T11:22:35;12.27;;;7.40;;
11839;SDS011;5979;50.800;4.904;2023-07-09T11:25:10;10.82;;;7.65;;
11839;SDS011;5979;50.800;4.904;2023-07-09T11:27:51;11.57;;;9.93;;
11839;SDS011;5979;50.800;4.904;2023-07-09T11:30:24;17.88;;;12.70;;
11839;SDS011;5979;50.800;4.904;2023-07-09T11:32:56;16.95;;;12.07;;
11839;SDS011;5979;50.800;4.904;2023-07-09T11:35:51;13.60;;;11.70;;
11839;SDS011;5979;50.800;4.904;2023-07-09T11:38:39;18.20;;;16.00;;
11839;SDS011;5979;50.800;4.904;2023-07-09T11:44:00;21.02;;;18.33;;
11839;SDS011;5979;50.800;4.904;2023-07-09T11:46:35;21.42;;;17.33;;
11839;SDS011;5979;50.800;4.904;2023-07-09T11:49:15;16.23;;;14.70;;
11839;SDS011;5979;50.800;4.904;2023-07-09T11:51:42;19.73;;;17.13;;
11839;SDS011;5979;50.800;4.904;2023-07-09T11:54:12;19.55;;;17.15;;
11839;SDS011;5979;50.800;4.904;2023-07-09T11:56:38;17.73;;;15.43;;
11839;SDS011;5979;50.800;4.904;2023-07-09T11:59:04;16.33;;;14.75;;
11839;SDS011;5979;50.800;4.904;2023-07-09T12:01:49;17.55;;;15.45;;
11839;SDS011;5979;50.800;4.904;2023-07-09T12:04:19;15.45;;;14.05;;
11839;SDS011;5979;50.800;4.904;2023-07-09T12:06:48;16.95;;;13.63;;
11839;SDS011;5979;50.800;4.904;2023-07-09T12:09:17;13.00;;;11.65;;
11839;SDS011;5979;50.800;4.904;2023-07-09T12:11:48;12.60;;;11.02;;
11839;SDS011;5979;50.800;4.904;2023-07-09T12:14:19;11.10;;;9.98;;
11839;SDS011;5979;50.800;4.904;2023-07-09T12:16:48;12.30;;;9.30;;
11839;SDS011;5979;50.800;4.904;2023-07-09T12:19:21;12.07;;;10.23;;
11839;SDS011;5979;50.800;4.904;2023-07-09T12:21:49;9.45;;;8.63;;
11839;SDS011;5979;50.800;4.904;2023-07-09T12:24:35;9.00;;;8.15;;
11839;SDS011;5979;50.800;4.904;2023-07-09T12:29:53;8.88;;;8.02;;
11839;SDS011;5979;50.800;4.904;2023-07-09T12:32:20;10.75;;;7.72;;
11839;SDS011;5979;50.800;4.904;2023-07-09T12:34:51;8.93;;;7.22;;
11839;SDS011;5979;50.800;4.904;2023-07-09T12:37:18;9.48;;;7.50;;
11839;SDS011;5979;50.800;4.904;2023-07-09T12:39:45;11.20;;;7.53;;
11839;SDS011;5979;50.800;4.904;2023-07-09T12:42:16;13.32;;;9.35;;
11839;SDS011;5979;50.800;4.904;2023-07-09T12:44:44;11.75;;;9.90;;
11839;SDS011;5979;50.800;4.904;2023-07-09T12:47:14;11.25;;;9.68;;
11839;SDS011;5979;50.800;4.904;2023-07-09T12:49:40;10.50;;;9.43;;
11839;SDS011;5979;50.800;4.904;2023-07-09T12:52:13;15.60;;;10.18;;
11839;SDS011;5979;50.800;4.904;2023-07-09T12:54:57;11.75;;;10.65;;
11839;SDS011;5979;50.800;4.904;2023-07-09T12:57:24;13.55;;;9.93;;
11839;SDS011;5979;50.800;4.904;2023-07-09T12:59:51;9.80;;;8.90;;
11839;SDS011;5979;50.800;4.904;2023-07-09T13:02:20;9.23;;;8.10;;
11839;SDS011;5979;50.800;4.904;2023-07-09T13:04:46;10.77;;;8.52;;
11839;SDS011;5979;50.800;4.904;2023-07-09T13:09:50;10.43;;;8.15;;
11839;SDS011;5979;50.800;4.904;2023-07-09T13:12:17;10.52;;;8.25;;
11839;SDS011;5979;50.800;4.904;2023-07-09T13:14:54;10.43;;;7.78;;
11839;SDS011;5979;50.800;4.904;2023-07-09T13:17:20;15.18;;;9.27;;
11839;SDS011;5979;50.800;4.904;2023-07-09T13:19:45;9.20;;;8.30;;
11839;SDS011;5979;50.800;4.904;2023-07-09T13:22:12;10.77;;;8.80;;
11839;SDS011;5979;50.800;4.904;2023-07-09T13:24:40;10.73;;;8.32;;
11839;SDS011;5979;50.800;4.904;2023-07-09T13:27:16;8.75;;;8.02;;
11839;SDS011;5979;50.800;4.904;2023-07-09T13:29:42;10.38;;;7.97;;
11839;SDS011;5979;50.800;4.904;2023-07-09T13:32:14;9.57;;;8.55;;
11839;SDS011;5979;50.800;4.904;2023-07-09T13:34:41;8.82;;;7.90;;
11839;SDS011;5979;50.800;4.904;2023-07-09T13:37:14;8.73;;;7.43;;
11839;SDS011;5979;50.800;4.904;2023-07-09T13:39:41;8.85;;;6.97;;
11839;SDS011;5979;50.800;4.904;2023-07-09T13:42:12;7.00;;;6.28;;
11839;SDS011;5979;50.800;4.904;2023-07-09T13:44:41;6.90;;;6.20;;
11839;SDS011;5979;50.800;4.904;2023-07-09T13:47:12;7.15;;;6.00;;
11839;SDS011;5979;50.800;4.904;2023-07-09T13:49:41;7.15;;;5.90;;
11839;SDS011;5979;50.800;4.904;2023-07-09T13:52:09;6.20;;;5.57;;
11839;SDS011;5979;50.800;4.904;2023-07-09T13:54:44;6.95;;;6.28;;
11839;SDS011;5979;50.800;4.904;2023-07-09T13:57:14;6.45;;;5.85;;
11839;SDS011;5979;50.800;4.904;2023-07-09T13:59:44;6.40;;;5.72;;
11839;SDS011;5979;50.800;4.904;2023-07-09T14:02:16;6.75;;;6.10;;
11839;SDS011;5979;50.800;4.904;2023-07-09T14:04:42;6.75;;;6.10;;
11839;SDS011;5979;50.800;4.904;2023-07-09T14:07:12;7.53;;;6.68;;
11839;SDS011;5979;50.800;4.904;2023-07-09T14:10:06;7.78;;;7.07;;
11839;SDS011;5979;50.800;4.904;2023-07-09T14:12:39;6.57;;;5.97;;
11839;SDS011;5979;50.800;4.904;2023-07-09T14:15:19;6.88;;;6.18;;
11839;SDS011;5979;50.800;4.904;2023-07-09T14:17:45;7.15;;;5.88;;
11839;SDS011;5979;50.800;4.904;2023-07-09T14:20:15;6.78;;;5.50;;
11839;SDS011;5979;50.800;4.904;2023-07-09T14:22:43;6.75;;;6.00;;
11839;SDS011;5979;50.800;4.904;2023-07-09T14:25:20;7.72;;;6.95;;
11839;SDS011;5979;50.800;4.904;2023-07-09T14:27:48;8.55;;;6.63;;
11839;SDS011;5979;50.800;4.904;2023-07-09T14:30:18;6.22;;;5.78;;
11839;SDS011;5979;50.800;4.904;2023-07-09T14:32:46;6.43;;;5.93;;
11839;SDS011;5979;50.800;4.904;2023-07-09T14:35:14;8.77;;;6.25;;
11839;SDS011;5979;50.800;4.904;2023-07-09T14:37:45;8.32;;;7.68;;
11839;SDS011;5979;50.800;4.904;2023-07-09T14:40:13;8.77;;;7.18;;
11839;SDS011;5979;50.800;4.904;2023-07-09T14:42:40;9.70;;;6.85;;
11839;SDS011;5979;50.800;4.904;2023-07-09T14:45:16;6.63;;;5.82;;
11839;SDS011;5979;50.800;4.904;2023-07-09T14:47:42;7.18;;;6.47;;
11839;SDS011;5979;50.800;4.904;2023-07-09T14:50:08;7.53;;;6.25;;
11839;SDS011;5979;50.800;4.904;2023-07-09T14:52:34;7.55;;;6.85;;
11839;SDS011;5979;50.800;4.904;2023-07-09T14:55:00;5.78;;;5.28;;
11839;SDS011;5979;50.800;4.904;2023-07-09T14:57:27;7.40;;;6.68;;
11839;SDS011;5979;50.800;4.904;2023-07-09T14:59:55;7.22;;;6.53;;
11839;SDS011;5979;50.800;4.904;2023-07-09T15:02:30;7.25;;;6.60;;
11839;SDS011;5979;50.800;4.904;2023-07-09T15:04:57;6.72;;;6.05;;
11839;SDS011;5979;50.800;4.904;2023-07-09T15:07:23;5.50;;;5.10;;
11839;SDS011;5979;50.800;4.904;2023-07-09T15:09:54;5.55;;;5.05;;
11839;SDS011;5979;50.800;4.904;2023-07-09T15:12:28;5.88;;;5.25;;
11839;SDS011;5979;50.800;4.904;2023-07-09T15:15:03;7.28;;;4.90;;
11839;SDS011;5979;50.800;4.904;2023-07-09T15:17:44;5.05;;;4.65;;
11839;SDS011;5979;50.800;4.904;2023-07-09T15:20:14;5.65;;;5.15;;
11839;SDS011;5979;50.800;4.904;2023-07-09T15:22:41;5.80;;;5.30;;
11839;SDS011;5979;50.800;4.904;2023-07-09T15:25:12;6.30;;;5.70;;
11839;SDS011;5979;50.800;4.904;2023-07-09T15:27:40;6.63;;;5.95;;
11839;SDS011;5979;50.800;4.904;2023-07-09T15:30:20;9.18;;;5.78;;
11839;SDS011;5979;50.800;4.904;2023-07-09T15:32:48;6.38;;;5.88;;
11839;SDS011;5979;50.800;4.904;2023-07-09T15:35:15;6.70;;;5.88;;
11839;SDS011;5979;50.800;4.904;2023-07-09T15:37:42;6.63;;;5.57;;
11839;SDS011;5979;50.800;4.904;2023-07-09T15:40:16;6.25;;;5.72;;
11839;SDS011;5979;50.800;4.904;2023-07-09T15:42:53;6.80;;;5.53;;
11839;SDS011;5979;50.800;4.904;2023-07-09T15:45:29;6.43;;;5.82;;
11839;SDS011;5979;50.800;4.904;2023-07-09T15:47:55;7.13;;;6.07;;
11839;SDS011;5979;50.800;4.904;2023-07-09T15:52:48;6.30;;;5.80;;
11839;SDS011;5979;50.800;4.904;2023-07-09T15:55:17;6.22;;;5.63;;